sensor_id;sensor_type;location;lat;lon;timestamp;temperature;humidity
48936;DHT22;34745;52.276;10.528;2022-10-16T00:01:36;15.30;99.90
48936;DHT22;34745;52.276;10.528;2022-10-16T00:04:04;15.30;99.90
48936;DHT22;34745;52.276;10.528;2022-10-16T00:06:32;15.20;99.90
48936;DHT22;34745;52.276;10.528;2022-10-16T00:08:59;15.20;99.90
48936;DHT22;34745;52.276;10.528;2022-10-16T00:11:28;15.20;99.90
48936;DHT22;34745;52.276;10.528;2022-10-16T00:13:58;15.20;99.90
48936;DHT22;34745;52.276;10.528;2022-10-16T00:16:28;15.10;99.90
48936;DHT22;34745;52.276;10.528;2022-10-16T00:18:55;15.10;99.90
48936;DHT22;34745;52.276;10.528;2022-10-16T00:21:25;15.10;99.90
48936;DHT22;34745;52.276;10.528;2022-10-16T00:23:54;15.00;99.90
48936;DHT22;34745;52.276;10.528;2022-10-16T00:26:22;15.00;99.90
48936;DHT22;34745;52.276;10.528;2022-10-16T00:28:50;15.10;99.90
48936;DHT22;34745;52.276;10.528;2022-10-16T00:31:19;15.00;99.90
48936;DHT22;34745;52.276;10.528;2022-10-16T00:33:49;15.00;99.90
48936;DHT22;34745;52.276;10.528;2022-10-16T00:36:18;15.00;99.90
48936;DHT22;34745;52.276;10.528;2022-10-16T00:38:46;15.00;99.90
48936;DHT22;34745;52.276;10.528;2022-10-16T00:41:14;15.00;99.90
48936;DHT22;34745;52.276;10.528;2022-10-16T00:43:44;15.10;99.90
48936;DHT22;34745;52.276;10.528;2022-10-16T00:46:16;15.00;99.90
48936;DHT22;34745;52.276;10.528;2022-10-16T00:48:50;15.00;99.90
48936;DHT22;34745;52.276;10.528;2022-10-16T00:51:19;15.00;99.90
48936;DHT22;34745;52.276;10.528;2022-10-16T00:53:49;15.00;99.90
48936;DHT22;34745;52.276;10.528;2022-10-16T00:56:20;14.90;99.90
48936;DHT22;34745;52.276;10.528;2022-10-16T00:58:47;14.90;99.90
48936;DHT22;34745;52.276;10.528;2022-10-16T01:01:14;14.90;99.90
48936;DHT22;34745;52.276;10.528;2022-10-16T01:03:41;14.90;99.90
48936;DHT22;34745;52.276;10.528;2022-10-16T01:06:21;15.00;99.90
48936;DHT22;34745;52.276;10.528;2022-10-16T01:09:03;15.00;99.90
48936;DHT22;34745;52.276;10.528;2022-10-16T01:11:38;15.00;99.90
48936;DHT22;34745;52.276;10.528;2022-10-16T01:14:16;15.00;99.90
48936;DHT22;34745;52.276;10.528;2022-10-16T01:16:51;15.00;99.90
48936;DHT22;34745;52.276;10.528;2022-10-16T01:19:30;15.00;99.90
48936;DHT22;34745;52.276;10.528;2022-10-16T01:22:03;15.00;99.90
48936;DHT22;34745;52.276;10.528;2022-10-16T01:24:36;15.00;99.90
48936;DHT22;34745;52.276;10.528;2022-10-16T01:27:15;15.00;99.90
48936;DHT22;34745;52.276;10.528;2022-10-16T01:29:49;15.00;99.90
48936;DHT22;34745;52.276;10.528;2022-10-16T01:32:23;14.90;99.90
48936;DHT22;34745;52.276;10.528;2022-10-16T01:34:53;14.90;99.90
48936;DHT22;34745;52.276;10.528;2022-10-16T01:37:31;14.80;99.90
48936;DHT22;34745;52.276;10.528;2022-10-16T01:39:59;14.80;99.90
48936;DHT22;34745;52.276;10.528;2022-10-16T01:42:32;14.80;99.90
48936;DHT22;34745;52.276;10.528;2022-10-16T01:45:01;14.80;99.90
48936;DHT22;34745;52.276;10.528;2022-10-16T01:47:30;14.80;99.90
48936;DHT22;34745;52.276;10.528;2022-10-16T01:49:58;14.80;99.90
48936;DHT22;34745;52.276;10.528;2022-10-16T01:52:28;14.80;99.90
48936;DHT22;34745;52.276;10.528;2022-10-16T01:54:56;14.80;99.90
48936;DHT22;34745;52.276;10.528;2022-10-16T01:57:26;14.80;99.90
48936;DHT22;34745;52.276;10.528;2022-10-16T01:59:58;14.80;99.90
48936;DHT22;34745;52.276;10.528;2022-10-16T02:02:30;14.80;99.90
48936;DHT22;34745;52.276;10.528;2022-10-16T02:04:59;14.70;99.90
48936;DHT22;34745;52.276;10.528;2022-10-16T02:07:28;14.80;99.90
48936;DHT22;34745;52.276;10.528;2022-10-16T02:09:56;14.70;99.90
48936;DHT22;34745;52.276;10.528;2022-10-16T02:12:27;14.70;99.90
48936;DHT22;34745;52.276;10.528;2022-10-16T02:14:56;14.80;99.90
48936;DHT22;34745;52.276;10.528;2022-10-16T02:17:25;14.80;99.90
48936;DHT22;34745;52.276;10.528;2022-10-16T02:19:54;14.80;99.90
48936;DHT22;34745;52.276;10.528;2022-10-16T02:22:26;14.80;99.90
48936;DHT22;34745;52.276;10.528;2022-10-16T02:24:57;14.70;99.90
48936;DHT22;34745;52.276;10.528;2022-10-16T02:27:29;14.80;99.90
48936;DHT22;34745;52.276;10.528;2022-10-16T02:30:05;14.80;99.90
48936;DHT22;34745;52.276;10.528;2022-10-16T02:32:37;14.80;99.90
48936;DHT22;34745;52.276;10.528;2022-10-16T02:35:07;14.80;99.90
48936;DHT22;34745;52.276;10.528;2022-10-16T02:37:36;14.70;99.90
48936;DHT22;34745;52.276;10.528;2022-10-16T02:40:04;14.80;99.90
48936;DHT22;34745;52.276;10.528;2022-10-16T02:42:34;14.80;99.90
48936;DHT22;34745;52.276;10.528;2022-10-16T02:45:03;14.80;99.90
48936;DHT22;34745;52.276;10.528;2022-10-16T02:47:31;14.80;99.90
48936;DHT22;34745;52.276;10.528;2022-10-16T02:49:58;14.80;99.90
48936;DHT22;34745;52.276;10.528;2022-10-16T02:52:26;14.80;99.90
48936;DHT22;34745;52.276;10.528;2022-10-16T02:54:53;14.80;99.90
48936;DHT22;34745;52.276;10.528;2022-10-16T02:57:20;14.80;99.90
48936;DHT22;34745;52.276;10.528;2022-10-16T02:59:47;14.70;99.90
48936;DHT22;34745;52.276;10.528;2022-10-16T03:02:16;14.80;99.90
48936;DHT22;34745;52.276;10.528;2022-10-16T03:04:43;14.70;99.90
48936;DHT22;34745;52.276;10.528;2022-10-16T03:07:10;14.70;99.90
48936;DHT22;34745;52.276;10.528;2022-10-16T03:09:37;14.80;99.90
48936;DHT22;34745;52.276;10.528;2022-10-16T03:12:04;14.80;99.90
48936;DHT22;34745;52.276;10.528;2022-10-16T03:14:31;14.70;99.90
48936;DHT22;34745;52.276;10.528;2022-10-16T03:16:58;14.70;99.90
48936;DHT22;34745;52.276;10.528;2022-10-16T03:19:27;14.70;99.90
48936;DHT22;34745;52.276;10.528;2022-10-16T03:21:54;14.70;99.90
48936;DHT22;34745;52.276;10.528;2022-10-16T03:24:21;14.70;99.90
48936;DHT22;34745;52.276;10.528;2022-10-16T03:26:48;14.70;99.90
48936;DHT22;34745;52.276;10.528;2022-10-16T03:29:15;14.70;99.90
48936;DHT22;34745;52.276;10.528;2022-10-16T03:31:42;14.60;99.90
48936;DHT22;34745;52.276;10.528;2022-10-16T03:34:09;14.60;99.90
48936;DHT22;34745;52.276;10.528;2022-10-16T03:36:37;14.60;99.90
48936;DHT22;34745;52.276;10.528;2022-10-16T03:39:04;14.60;99.90
48936;DHT22;34745;52.276;10.528;2022-10-16T03:41:31;14.60;99.90
48936;DHT22;34745;52.276;10.528;2022-10-16T03:43:58;14.60;99.90
48936;DHT22;34745;52.276;10.528;2022-10-16T03:46:25;14.60;99.90
48936;DHT22;34745;52.276;10.528;2022-10-16T03:48:52;14.60;99.90
48936;DHT22;34745;52.276;10.528;2022-10-16T03:51:19;14.60;99.90
48936;DHT22;34745;52.276;10.528;2022-10-16T03:53:48;14.50;99.90
48936;DHT22;34745;52.276;10.528;2022-10-16T03:56:14;14.50;99.90
48936;DHT22;34745;52.276;10.528;2022-10-16T03:58:42;14.50;99.90
48936;DHT22;34745;52.276;10.528;2022-10-16T04:01:09;14.50;99.90
48936;DHT22;34745;52.276;10.528;2022-10-16T04:03:36;14.50;99.90
48936;DHT22;34745;52.276;10.528;2022-10-16T04:06:03;14.50;99.90
48936;DHT22;34745;52.276;10.528;2022-10-16T04:08:30;14.40;99.90
48936;DHT22;34745;52.276;10.528;2022-10-16T04:11:02;14.40;99.90
48936;DHT22;34745;52.276;10.528;2022-10-16T04:13:29;14.40;99.90
48936;DHT22;34745;52.276;10.528;2022-10-16T04:15:56;14.40;99.90
48936;DHT22;34745;52.276;10.528;2022-10-16T04:18:23;14.40;99.90
48936;DHT22;34745;52.276;10.528;2022-10-16T04:20:53;14.40;99.90
48936;DHT22;34745;52.276;10.528;2022-10-16T04:23:21;14.40;99.90
48936;DHT22;34745;52.276;10.528;2022-10-16T04:25:49;14.40;99.90
48936;DHT22;34745;52.276;10.528;2022-10-16T04:28:18;14.40;99.90
48936;DHT22;34745;52.276;10.528;2022-10-16T04:30:44;14.50;99.90
48936;DHT22;34745;52.276;10.528;2022-10-16T04:33:12;14.40;99.90
48936;DHT22;34745;52.276;10.528;2022-10-16T04:35:39;14.40;99.90
48936;DHT22;34745;52.276;10.528;2022-10-16T04:38:06;14.40;99.90
48936;DHT22;34745;52.276;10.528;2022-10-16T04:40:33;14.40;99.90
48936;DHT22;34745;52.276;10.528;2022-10-16T04:43:03;14.40;99.90
48936;DHT22;34745;52.276;10.528;2022-10-16T04:45:31;14.40;99.90
48936;DHT22;34745;52.276;10.528;2022-10-16T04:47:59;14.30;99.90
48936;DHT22;34745;52.276;10.528;2022-10-16T04:50:26;14.30;99.90
48936;DHT22;34745;52.276;10.528;2022-10-16T04:52:53;14.30;99.90
48936;DHT22;34745;52.276;10.528;2022-10-16T04:55:21;14.20;99.90
48936;DHT22;34745;52.276;10.528;2022-10-16T04:57:48;14.20;99.90
48936;DHT22;34745;52.276;10.528;2022-10-16T05:00:15;14.20;99.90
48936;DHT22;34745;52.276;10.528;2022-10-16T05:02:44;14.20;99.90
48936;DHT22;34745;52.276;10.528;2022-10-16T05:05:11;14.20;99.90
48936;DHT22;34745;52.276;10.528;2022-10-16T05:07:38;14.20;99.90
48936;DHT22;34745;52.276;10.528;2022-10-16T05:10:06;14.20;99.90
48936;DHT22;34745;52.276;10.528;2022-10-16T05:12:33;14.20;99.90
48936;DHT22;34745;52.276;10.528;2022-10-16T05:15:00;14.20;99.90
48936;DHT22;34745;52.276;10.528;2022-10-16T05:17:27;14.20;99.90
48936;DHT22;34745;52.276;10.528;2022-10-16T05:19:56;14.10;99.90
48936;DHT22;34745;52.276;10.528;2022-10-16T05:22:23;14.10;99.90
48936;DHT22;34745;52.276;10.528;2022-10-16T05:24:50;14.10;99.90
48936;DHT22;34745;52.276;10.528;2022-10-16T05:27:17;14.10;99.90
48936;DHT22;34745;52.276;10.528;2022-10-16T05:29:48;14.20;99.90
48936;DHT22;34745;52.276;10.528;2022-10-16T05:32:16;14.10;99.90
48936;DHT22;34745;52.276;10.528;2022-10-16T05:34:43;14.10;99.90
48936;DHT22;34745;52.276;10.528;2022-10-16T05:37:12;14.10;99.90
48936;DHT22;34745;52.276;10.528;2022-10-16T05:39:39;14.10;99.90
48936;DHT22;34745;52.276;10.528;2022-10-16T05:42:06;14.20;99.90
48936;DHT22;34745;52.276;10.528;2022-10-16T05:44:33;14.20;99.90
48936;DHT22;34745;52.276;10.528;2022-10-16T05:47:07;14.20;99.90
48936;DHT22;34745;52.276;10.528;2022-10-16T05:49:34;14.10;99.90
48936;DHT22;34745;52.276;10.528;2022-10-16T05:52:06;14.10;99.90
48936;DHT22;34745;52.276;10.528;2022-10-16T05:54:34;14.10;99.90
48936;DHT22;34745;52.276;10.528;2022-10-16T05:57:01;14.10;99.90
48936;DHT22;34745;52.276;10.528;2022-10-16T05:59:29;14.10;99.90
48936;DHT22;34745;52.276;10.528;2022-10-16T06:01:55;14.00;99.90
48936;DHT22;34745;52.276;10.528;2022-10-16T06:04:23;14.00;99.90
48936;DHT22;34745;52.276;10.528;2022-10-16T06:06:50;14.00;99.90
48936;DHT22;34745;52.276;10.528;2022-10-16T06:09:17;14.00;99.90
48936;DHT22;34745;52.276;10.528;2022-10-16T06:11:45;14.00;99.90
48936;DHT22;34745;52.276;10.528;2022-10-16T06:14:13;14.00;99.90
48936;DHT22;34745;52.276;10.528;2022-10-16T06:16:39;14.00;99.90
48936;DHT22;34745;52.276;10.528;2022-10-16T06:19:07;14.00;99.90
48936;DHT22;34745;52.276;10.528;2022-10-16T06:21:34;14.10;99.90
48936;DHT22;34745;52.276;10.528;2022-10-16T06:24:02;14.10;99.90
48936;DHT22;34745;52.276;10.528;2022-10-16T06:26:30;14.10;99.90
48936;DHT22;34745;52.276;10.528;2022-10-16T06:28:59;14.20;99.90
48936;DHT22;34745;52.276;10.528;2022-10-16T06:31:27;14.20;99.90
48936;DHT22;34745;52.276;10.528;2022-10-16T06:33:57;14.20;99.90
48936;DHT22;34745;52.276;10.528;2022-10-16T06:36:25;14.20;99.90
48936;DHT22;34745;52.276;10.528;2022-10-16T06:38:52;14.20;99.90
48936;DHT22;34745;52.276;10.528;2022-10-16T06:41:21;14.20;99.90
48936;DHT22;34745;52.276;10.528;2022-10-16T06:43:48;14.20;99.90
48936;DHT22;34745;52.276;10.528;2022-10-16T06:46:19;14.20;99.90
48936;DHT22;34745;52.276;10.528;2022-10-16T06:48:47;14.30;99.90
48936;DHT22;34745;52.276;10.528;2022-10-16T06:51:16;14.30;99.90
48936;DHT22;34745;52.276;10.528;2022-10-16T06:53:45;14.30;99.90
48936;DHT22;34745;52.276;10.528;2022-10-16T06:56:31;14.40;99.90
48936;DHT22;34745;52.276;10.528;2022-10-16T06:58:59;14.50;99.90
48936;DHT22;34745;52.276;10.528;2022-10-16T07:01:28;14.60;99.90
48936;DHT22;34745;52.276;10.528;2022-10-16T07:03:55;14.60;99.90
48936;DHT22;34745;52.276;10.528;2022-10-16T07:06:25;14.60;99.90
48936;DHT22;34745;52.276;10.528;2022-10-16T07:08:53;14.70;99.90
48936;DHT22;34745;52.276;10.528;2022-10-16T07:11:21;14.70;99.90
48936;DHT22;34745;52.276;10.528;2022-10-16T07:13:50;14.80;99.90
48936;DHT22;34745;52.276;10.528;2022-10-16T07:16:23;14.80;99.90
48936;DHT22;34745;52.276;10.528;2022-10-16T07:18:53;15.00;99.90
48936;DHT22;34745;52.276;10.528;2022-10-16T07:21:26;15.00;99.90
48936;DHT22;34745;52.276;10.528;2022-10-16T07:23:55;15.10;99.90
48936;DHT22;34745;52.276;10.528;2022-10-16T07:26:22;15.20;99.90
48936;DHT22;34745;52.276;10.528;2022-10-16T07:28:50;15.20;99.90
48936;DHT22;34745;52.276;10.528;2022-10-16T07:31:19;15.40;99.90
48936;DHT22;34745;52.276;10.528;2022-10-16T07:33:47;15.40;99.90
48936;DHT22;34745;52.276;10.528;2022-10-16T07:36:16;15.50;99.90
48936;DHT22;34745;52.276;10.528;2022-10-16T07:38:45;15.50;99.90
48936;DHT22;34745;52.276;10.528;2022-10-16T07:41:14;15.50;99.90
48936;DHT22;34745;52.276;10.528;2022-10-16T07:43:47;15.60;99.90
48936;DHT22;34745;52.276;10.528;2022-10-16T07:46:14;15.70;99.90
48936;DHT22;34745;52.276;10.528;2022-10-16T07:48:42;15.80;99.90
48936;DHT22;34745;52.276;10.528;2022-10-16T07:51:14;16.00;99.90
48936;DHT22;34745;52.276;10.528;2022-10-16T07:53:43;16.10;99.90
48936;DHT22;34745;52.276;10.528;2022-10-16T07:56:10;16.10;99.90
48936;DHT22;34745;52.276;10.528;2022-10-16T07:58:39;16.20;99.90
48936;DHT22;34745;52.276;10.528;2022-10-16T08:01:07;16.30;99.90
48936;DHT22;34745;52.276;10.528;2022-10-16T08:03:35;16.30;99.90
48936;DHT22;34745;52.276;10.528;2022-10-16T08:06:03;16.40;99.90
48936;DHT22;34745;52.276;10.528;2022-10-16T08:08:31;16.40;84.40
48936;DHT22;34745;52.276;10.528;2022-10-16T08:10:59;16.40;67.50
48936;DHT22;34745;52.276;10.528;2022-10-16T08:13:26;16.40;69.00
48936;DHT22;34745;52.276;10.528;2022-10-16T08:15:55;16.40;63.90
48936;DHT22;34745;52.276;10.528;2022-10-16T08:18:22;16.40;54.10
48936;DHT22;34745;52.276;10.528;2022-10-16T08:20:55;16.60;55.60
48936;DHT22;34745;52.276;10.528;2022-10-16T08:23:24;16.60;39.70
48936;DHT22;34745;52.276;10.528;2022-10-16T08:25:52;16.70;27.90
48936;DHT22;34745;52.276;10.528;2022-10-16T08:28:23;16.60;28.70
48936;DHT22;34745;52.276;10.528;2022-10-16T08:30:50;16.60;29.10
48936;DHT22;34745;52.276;10.528;2022-10-16T08:33:17;16.70;21.00
48936;DHT22;34745;52.276;10.528;2022-10-16T08:35:50;16.70;14.80
48936;DHT22;34745;52.276;10.528;2022-10-16T08:38:18;16.80;20.80
48936;DHT22;34745;52.276;10.528;2022-10-16T08:40:45;16.80;19.40
48936;DHT22;34745;52.276;10.528;2022-10-16T08:43:40;16.80;24.60
48936;DHT22;34745;52.276;10.528;2022-10-16T08:46:20;16.80;29.40
48936;DHT22;34745;52.276;10.528;2022-10-16T08:48:50;16.80;33.00
48936;DHT22;34745;52.276;10.528;2022-10-16T08:51:21;16.80;22.00
48936;DHT22;34745;52.276;10.528;2022-10-16T08:53:51;16.80;26.00
48936;DHT22;34745;52.276;10.528;2022-10-16T08:56:20;16.70;33.20
48936;DHT22;34745;52.276;10.528;2022-10-16T08:58:49;16.70;36.60
48936;DHT22;34745;52.276;10.528;2022-10-16T09:01:22;16.80;32.50
48936;DHT22;34745;52.276;10.528;2022-10-16T09:06:56;16.80;30.30
48936;DHT22;34745;52.276;10.528;2022-10-16T09:09:54;16.80;29.70
48936;DHT22;34745;52.276;10.528;2022-10-16T09:12:27;16.90;4.60
48936;DHT22;34745;52.276;10.528;2022-10-16T09:15:05;17.00;1.00
48936;DHT22;34745;52.276;10.528;2022-10-16T09:17:46;17.00;1.00
48936;DHT22;34745;52.276;10.528;2022-10-16T09:20:32;17.10;1.00
48936;DHT22;34745;52.276;10.528;2022-10-16T09:23:13;17.10;1.00
48936;DHT22;34745;52.276;10.528;2022-10-16T09:25:44;17.20;1.00
48936;DHT22;34745;52.276;10.528;2022-10-16T09:28:11;17.30;1.00
48936;DHT22;34745;52.276;10.528;2022-10-16T09:30:40;17.40;1.00
48936;DHT22;34745;52.276;10.528;2022-10-16T09:33:08;17.20;1.00
48936;DHT22;34745;52.276;10.528;2022-10-16T09:35:38;17.20;1.00
48936;DHT22;34745;52.276;10.528;2022-10-16T09:38:06;17.20;1.00
48936;DHT22;34745;52.276;10.528;2022-10-16T09:40:35;17.20;1.00
48936;DHT22;34745;52.276;10.528;2022-10-16T09:43:12;17.20;1.00
48936;DHT22;34745;52.276;10.528;2022-10-16T09:45:53;17.10;1.00
48936;DHT22;34745;52.276;10.528;2022-10-16T09:48:22;17.20;1.00
48936;DHT22;34745;52.276;10.528;2022-10-16T09:50:56;17.20;1.00
48936;DHT22;34745;52.276;10.528;2022-10-16T09:53:26;17.20;1.00
48936;DHT22;34745;52.276;10.528;2022-10-16T09:55:53;17.20;1.00
48936;DHT22;34745;52.276;10.528;2022-10-16T09:58:23;17.20;1.00
48936;DHT22;34745;52.276;10.528;2022-10-16T10:00:53;17.30;1.00
48936;DHT22;34745;52.276;10.528;2022-10-16T10:03:34;17.30;1.00
48936;DHT22;34745;52.276;10.528;2022-10-16T10:06:07;17.30;1.00
48936;DHT22;34745;52.276;10.528;2022-10-16T10:08:53;17.50;1.00
48936;DHT22;34745;52.276;10.528;2022-10-16T10:11:42;17.90;1.00
48936;DHT22;34745;52.276;10.528;2022-10-16T10:14:22;18.10;1.00
48936;DHT22;34745;52.276;10.528;2022-10-16T10:16:51;18.50;1.00
48936;DHT22;34745;52.276;10.528;2022-10-16T10:19:20;19.00;1.00
48936;DHT22;34745;52.276;10.528;2022-10-16T10:21:48;19.00;1.00
48936;DHT22;34745;52.276;10.528;2022-10-16T10:24:18;19.20;1.00
48936;DHT22;34745;52.276;10.528;2022-10-16T10:26:49;19.40;1.00
48936;DHT22;34745;52.276;10.528;2022-10-16T10:29:36;19.50;1.00
48936;DHT22;34745;52.276;10.528;2022-10-16T10:32:17;19.50;1.00
48936;DHT22;34745;52.276;10.528;2022-10-16T10:35:07;19.60;1.00
48936;DHT22;34745;52.276;10.528;2022-10-16T10:37:55;19.90;1.00
48936;DHT22;34745;52.276;10.528;2022-10-16T10:40:34;20.10;1.00
48936;DHT22;34745;52.276;10.528;2022-10-16T10:43:13;20.00;1.00
48936;DHT22;34745;52.276;10.528;2022-10-16T10:45:46;20.00;1.00
48936;DHT22;34745;52.276;10.528;2022-10-16T10:48:24;19.60;1.00
48936;DHT22;34745;52.276;10.528;2022-10-16T10:50:59;19.70;1.00
48936;DHT22;34745;52.276;10.528;2022-10-16T10:53:36;19.20;1.00
48936;DHT22;34745;52.276;10.528;2022-10-16T10:56:14;19.30;1.00
48936;DHT22;34745;52.276;10.528;2022-10-16T10:59:01;19.00;1.00
48936;DHT22;34745;52.276;10.528;2022-10-16T11:01:39;19.10;1.00
48936;DHT22;34745;52.276;10.528;2022-10-16T11:04:29;19.20;1.00
48936;DHT22;34745;52.276;10.528;2022-10-16T11:07:02;19.20;1.00
48936;DHT22;34745;52.276;10.528;2022-10-16T11:09:34;19.50;1.00
48936;DHT22;34745;52.276;10.528;2022-10-16T11:12:07;19.70;1.00
48936;DHT22;34745;52.276;10.528;2022-10-16T11:14:42;19.80;1.00
48936;DHT22;34745;52.276;10.528;2022-10-16T11:17:16;19.90;1.00
48936;DHT22;34745;52.276;10.528;2022-10-16T11:19:51;19.30;1.00
48936;DHT22;34745;52.276;10.528;2022-10-16T11:22:24;19.20;1.00
48936;DHT22;34745;52.276;10.528;2022-10-16T11:25:00;19.30;1.00
48936;DHT22;34745;52.276;10.528;2022-10-16T11:27:36;18.90;1.00
48936;DHT22;34745;52.276;10.528;2022-10-16T11:30:08;18.80;1.00
48936;DHT22;34745;52.276;10.528;2022-10-16T11:32:53;19.00;1.00
48936;DHT22;34745;52.276;10.528;2022-10-16T11:35:28;18.80;1.00
48936;DHT22;34745;52.276;10.528;2022-10-16T11:38:02;19.00;1.00
48936;DHT22;34745;52.276;10.528;2022-10-16T11:40:32;19.20;1.00
48936;DHT22;34745;52.276;10.528;2022-10-16T11:43:07;19.20;1.00
48936;DHT22;34745;52.276;10.528;2022-10-16T11:45:40;19.40;1.00
48936;DHT22;34745;52.276;10.528;2022-10-16T11:48:21;19.30;1.00
48936;DHT22;34745;52.276;10.528;2022-10-16T11:51:26;19.40;1.00
48936;DHT22;34745;52.276;10.528;2022-10-16T11:54:15;19.60;1.00
48936;DHT22;34745;52.276;10.528;2022-10-16T11:56:54;19.80;1.00
48936;DHT22;34745;52.276;10.528;2022-10-16T11:59:31;20.10;1.00
48936;DHT22;34745;52.276;10.528;2022-10-16T12:02:35;19.80;1.00
48936;DHT22;34745;52.276;10.528;2022-10-16T12:05:18;19.80;1.00
48936;DHT22;34745;52.276;10.528;2022-10-16T12:07:56;19.80;1.00
48936;DHT22;34745;52.276;10.528;2022-10-16T12:10:36;19.70;1.00
48936;DHT22;34745;52.276;10.528;2022-10-16T12:13:29;19.20;1.00
48936;DHT22;34745;52.276;10.528;2022-10-16T12:16:06;19.00;1.00
48936;DHT22;34745;52.276;10.528;2022-10-16T12:18:45;18.70;1.00
48936;DHT22;34745;52.276;10.528;2022-10-16T12:21:33;19.10;1.00
48936;DHT22;34745;52.276;10.528;2022-10-16T12:24:19;19.20;1.00
48936;DHT22;34745;52.276;10.528;2022-10-16T12:27:19;19.10;1.00
48936;DHT22;34745;52.276;10.528;2022-10-16T12:30:00;19.10;1.00
48936;DHT22;34745;52.276;10.528;2022-10-16T12:32:42;19.80;1.00
48936;DHT22;34745;52.276;10.528;2022-10-16T12:35:26;20.00;1.00
48936;DHT22;34745;52.276;10.528;2022-10-16T12:38:16;20.30;1.00
48936;DHT22;34745;52.276;10.528;2022-10-16T12:40:59;20.60;1.00
48936;DHT22;34745;52.276;10.528;2022-10-16T12:43:45;20.70;1.00
48936;DHT22;34745;52.276;10.528;2022-10-16T12:46:37;21.10;1.00
48936;DHT22;34745;52.276;10.528;2022-10-16T12:49:34;21.40;1.00
48936;DHT22;34745;52.276;10.528;2022-10-16T12:52:25;21.90;1.00
48936;DHT22;34745;52.276;10.528;2022-10-16T12:55:12;22.10;1.00
48936;DHT22;34745;52.276;10.528;2022-10-16T12:58:09;21.90;1.00
48936;DHT22;34745;52.276;10.528;2022-10-16T13:00:45;21.90;1.00
48936;DHT22;34745;52.276;10.528;2022-10-16T13:06:48;21.40;1.00
48936;DHT22;34745;52.276;10.528;2022-10-16T13:09:46;20.50;1.00
48936;DHT22;34745;52.276;10.528;2022-10-16T13:12:38;19.80;1.00
48936;DHT22;34745;52.276;10.528;2022-10-16T13:15:37;19.30;1.00
48936;DHT22;34745;52.276;10.528;2022-10-16T13:18:16;19.30;1.00
48936;DHT22;34745;52.276;10.528;2022-10-16T13:21:08;19.40;1.00
48936;DHT22;34745;52.276;10.528;2022-10-16T13:23:51;19.40;1.00
48936;DHT22;34745;52.276;10.528;2022-10-16T13:26:35;19.60;1.00
48936;DHT22;34745;52.276;10.528;2022-10-16T13:29:13;19.50;1.00
48936;DHT22;34745;52.276;10.528;2022-10-16T13:31:51;20.10;1.00
48936;DHT22;34745;52.276;10.528;2022-10-16T13:34:25;21.00;1.00
48936;DHT22;34745;52.276;10.528;2022-10-16T13:36:55;21.70;1.00
48936;DHT22;34745;52.276;10.528;2022-10-16T13:39:30;21.90;1.00
48936;DHT22;34745;52.276;10.528;2022-10-16T13:42:06;22.20;1.00
48936;DHT22;34745;52.276;10.528;2022-10-16T13:44:45;22.70;1.00
48936;DHT22;34745;52.276;10.528;2022-10-16T13:47:39;23.00;99.90
48936;DHT22;34745;52.276;10.528;2022-10-16T13:50:16;23.30;99.90
48936;DHT22;34745;52.276;10.528;2022-10-16T13:52:48;23.60;99.90
48936;DHT22;34745;52.276;10.528;2022-10-16T13:55:26;23.50;99.90
48936;DHT22;34745;52.276;10.528;2022-10-16T13:58:10;23.40;99.90
48936;DHT22;34745;52.276;10.528;2022-10-16T14:00:54;23.30;99.90
48936;DHT22;34745;52.276;10.528;2022-10-16T14:03:27;23.20;99.90
48936;DHT22;34745;52.276;10.528;2022-10-16T14:06:03;23.00;99.90
48936;DHT22;34745;52.276;10.528;2022-10-16T14:08:33;23.00;99.90
48936;DHT22;34745;52.276;10.528;2022-10-16T14:11:04;22.80;99.90
48936;DHT22;34745;52.276;10.528;2022-10-16T14:13:44;22.90;99.90
48936;DHT22;34745;52.276;10.528;2022-10-16T14:16:28;22.80;99.90
48936;DHT22;34745;52.276;10.528;2022-10-16T14:19:05;22.70;99.90
48936;DHT22;34745;52.276;10.528;2022-10-16T14:21:43;22.80;99.90
48936;DHT22;34745;52.276;10.528;2022-10-16T14:24:13;22.70;99.90
48936;DHT22;34745;52.276;10.528;2022-10-16T14:26:43;22.70;99.90
48936;DHT22;34745;52.276;10.528;2022-10-16T14:29:29;22.80;99.90
48936;DHT22;34745;52.276;10.528;2022-10-16T14:32:20;22.80;99.90
48936;DHT22;34745;52.276;10.528;2022-10-16T14:35:04;23.00;99.90
48936;DHT22;34745;52.276;10.528;2022-10-16T14:37:44;22.70;99.90
48936;DHT22;34745;52.276;10.528;2022-10-16T14:40:25;22.70;99.90
48936;DHT22;34745;52.276;10.528;2022-10-16T14:43:04;22.50;99.90
48936;DHT22;34745;52.276;10.528;2022-10-16T14:45:59;22.50;99.90
48936;DHT22;34745;52.276;10.528;2022-10-16T14:48:34;22.70;99.90
48936;DHT22;34745;52.276;10.528;2022-10-16T14:51:10;22.40;99.90
48936;DHT22;34745;52.276;10.528;2022-10-16T14:53:46;22.00;99.90
48936;DHT22;34745;52.276;10.528;2022-10-16T14:56:46;21.80;1.00
48936;DHT22;34745;52.276;10.528;2022-10-16T14:59:28;21.90;1.00
48936;DHT22;34745;52.276;10.528;2022-10-16T15:02:21;22.10;1.00
48936;DHT22;34745;52.276;10.528;2022-10-16T15:05:10;22.10;1.00
48936;DHT22;34745;52.276;10.528;2022-10-16T15:07:54;21.60;1.00
48936;DHT22;34745;52.276;10.528;2022-10-16T15:10:27;21.30;1.00
48936;DHT22;34745;52.276;10.528;2022-10-16T15:13:16;20.90;1.00
48936;DHT22;34745;52.276;10.528;2022-10-16T15:15:53;20.80;1.00
48936;DHT22;34745;52.276;10.528;2022-10-16T15:18:41;20.70;1.00
48936;DHT22;34745;52.276;10.528;2022-10-16T15:21:22;20.50;1.00
48936;DHT22;34745;52.276;10.528;2022-10-16T15:24:01;20.30;1.00
48936;DHT22;34745;52.276;10.528;2022-10-16T15:26:40;20.10;1.00
48936;DHT22;34745;52.276;10.528;2022-10-16T15:29:11;20.00;1.00
48936;DHT22;34745;52.276;10.528;2022-10-16T15:31:39;19.80;1.00
48936;DHT22;34745;52.276;10.528;2022-10-16T15:34:15;19.70;1.00
48936;DHT22;34745;52.276;10.528;2022-10-16T15:37:05;19.60;1.00
48936;DHT22;34745;52.276;10.528;2022-10-16T15:39:50;19.50;1.00
48936;DHT22;34745;52.276;10.528;2022-10-16T15:42:24;19.40;1.00
48936;DHT22;34745;52.276;10.528;2022-10-16T15:44:53;19.30;1.00
48936;DHT22;34745;52.276;10.528;2022-10-16T15:47:28;19.20;1.00
48936;DHT22;34745;52.276;10.528;2022-10-16T15:50:04;19.10;1.00
48936;DHT22;34745;52.276;10.528;2022-10-16T15:52:42;19.10;1.00
48936;DHT22;34745;52.276;10.528;2022-10-16T15:55:14;19.00;1.00
48936;DHT22;34745;52.276;10.528;2022-10-16T15:57:45;19.00;1.00
48936;DHT22;34745;52.276;10.528;2022-10-16T16:00:26;18.90;1.00
48936;DHT22;34745;52.276;10.528;2022-10-16T16:02:57;18.80;1.00
48936;DHT22;34745;52.276;10.528;2022-10-16T16:05:37;18.70;1.00